.
WxDataArchive / Data Records for 2007-01-03
2007-01-02 January 2007 2007-01-04

Data Records for Wednesday, 03 January 2007

Time	Temp	Chill	HIndex	Humid	Dewpt	 Wind 	HiWind	WindDir	Rain 	Barom 
-----	----	-----	------	-----	-----	------	------	-------	-----	----- 
00:00	35.5	35.5	35.5	85	31.4	1	5	248	0.00	30.245 
00:05	35.5	35.5	35.5	85	31.4	1	4	248	0.00	30.245 
00:10	35.5	35.5	35.5	85	31.4	1	3	248	0.00	30.245 
00:15	35.5	35.5	35.5	85	31.4	0	2	248	0.00	30.242 
00:20	35.3	35.3	35.3	85	31.2	1	4	248	0.00	30.242 
00:25	35.3	35.3	35.3	85	31.2	1	3	248	0.00	30.242 
00:30	35.3	35.3	35.3	85	31.2	1	4	248	0.00	30.239 
00:35	35.3	35.3	35.3	84	31.0	1	4	248	0.00	30.239 
00:40	35.3	35.3	35.3	85	31.2	1	3	225	0.00	30.239 
00:45	35.3	35.3	35.3	85	31.2	1	4	248	0.00	30.236 
00:50	35.3	35.3	35.3	85	31.2	1	5	248	0.00	30.236 
00:55	35.3	35.3	35.3	84	31.0	1	4	248	0.00	30.236 
01:00	35.2	35.2	35.2	84	30.9	2	4	248	0.00	30.227 
01:05	35.2	35.2	35.2	85	31.2	1	5	248	0.00	30.227 
01:10	35.0	35.0	35.0	85	31.0	1	3	248	0.00	30.227 
01:15	35.0	35.0	35.0	85	31.0	1	3	248	0.00	30.234 
01:20	35.0	35.0	35.0	85	31.0	2	4	248	0.00	30.234 
01:25	34.9	34.9	34.9	85	30.9	2	4	248	0.00	30.234 
01:30	34.9	34.9	34.9	85	30.9	1	3	248	0.00	30.228 
01:35	34.7	34.7	34.7	85	30.7	1	4	248	0.00	30.228 
01:40	34.6	34.6	34.6	85	30.6	1	2	248	0.00	30.228 
01:45	34.4	34.4	34.4	85	30.4	1	3	248	0.00	30.236 
01:50	34.3	34.3	34.3	86	30.6	1	4	248	0.00	30.236 
01:55	34.3	34.3	34.3	86	30.6	1	2	248	0.00	30.236 
02:00	34.1	34.1	34.1	86	30.4	0	2	248	0.00	30.226 
02:05	33.8	33.8	33.8	86	30.1	0	2	248	0.00	30.226 
02:10	33.7	33.7	33.7	87	30.3	1	2	248	0.00	30.226 
02:15	33.7	33.7	33.7	87	30.3	0	1	248	0.00	30.225 
02:20	33.4	33.4	33.4	87	30.0	0	2	248	0.00	30.225 
02:25	33.2	33.2	33.2	87	29.8	0	2	248	0.00	30.225 
02:30	33.2	33.2	33.2	88	30.0	1	2	248	0.00	30.224 
02:35	33.2	33.2	33.2	88	30.0	0	2	248	0.00	30.224 
02:40	33.1	33.1	33.1	88	29.9	0	2	248	0.00	30.224 
02:45	32.9	32.9	32.9	88	29.7	0	2	248	0.00	30.223 
02:50	32.8	32.8	32.8	88	29.6	0	2	248	0.00	30.223 
02:55	32.8	32.8	32.8	89	29.9	0	1	248	0.00	30.223 
03:00	32.7	32.7	32.7	89	29.8	0	1	248	0.00	30.225 
03:05	32.7	32.7	32.7	89	29.8	0	1	248	0.00	30.225 
03:10	32.5	32.5	32.5	89	29.6	0	3	248	0.00	30.225 
03:15	32.4	32.4	32.4	89	29.5	0	2	248	0.00	30.224 
03:20	32.4	32.4	32.4	90	29.8	0	1	248	0.00	30.224 
03:25	32.4	32.4	32.4	90	29.8	0	2	248	0.00	30.224 
03:30	32.4	32.4	32.4	90	29.8	0	2	270	0.00	30.223 
03:35	32.4	32.4	32.4	90	29.8	0	2	270	0.00	30.223 
03:40	32.4	32.4	32.4	90	29.8	0	4	248	0.00	30.223 
03:45	32.4	32.4	32.4	90	29.8	0	2	248	0.00	30.218 
03:50	32.4	32.4	32.4	90	29.8	1	3	248	0.00	30.218 
03:55	32.2	32.2	32.2	90	29.6	1	3	248	0.00	30.218 
04:00	32.2	32.2	32.2	90	29.6	1	3	248	0.00	30.220 
04:05	32.2	32.2	32.2	90	29.6	0	2	248	0.00	30.220 
04:10	32.2	32.2	32.2	90	29.6	1	4	248	0.00	30.220 
04:15	32.2	32.2	32.2	90	29.6	0	3	248	0.00	30.216 
04:20	32.2	32.2	32.2	91	29.9	1	2	248	0.00	30.216 
04:25	32.2	32.2	32.2	91	29.9	1	2	248	0.00	30.216 
04:30	32.4	32.4	32.4	91	30.1	1	5	248	0.00	30.214 
04:35	32.5	32.5	32.5	91	30.2	1	4	248	0.00	30.214 
04:40	32.5	32.5	32.5	90	29.9	2	5	248	0.00	30.214 
04:45	32.5	32.5	32.5	90	29.9	1	6	248	0.00	30.207 
04:50	32.5	32.5	32.5	90	29.9	1	3	248	0.00	30.207 
04:55	32.5	32.5	32.5	90	29.9	1	4	225	0.00	30.207 
05:00	32.5	32.5	32.5	90	29.9	1	4	248	0.00	30.199 
05:05	32.5	32.5	32.5	90	29.9	2	5	248	0.00	30.199 
05:10	32.7	32.7	32.7	90	30.1	2	5	248	0.00	30.199 
05:15	32.7	32.7	32.7	89	29.8	1	4	248	0.00	30.205 
05:20	32.7	32.7	32.7	89	29.8	2	6	248	0.00	30.205 
05:25	32.8	32.8	32.8	89	29.9	2	4	248	0.00	30.205 
05:30	32.7	32.7	32.7	89	29.8	2	4	248	0.00	30.210 
05:35	32.7	32.7	32.7	89	29.8	1	4	248	0.00	30.210 
05:40	32.7	32.7	32.7	89	29.8	1	4	248	0.00	30.210 
05:45	32.5	32.5	32.5	89	29.6	2	4	248	0.00	30.206 
05:50	32.5	32.5	32.5	89	29.6	2	5	248	0.00	30.206 
05:55	32.5	32.5	32.5	89	29.6	2	5	270	0.00	30.206 
06:00	32.5	32.5	32.5	89	29.6	2	5	248	0.00	30.209 
06:05	32.5	32.5	32.5	89	29.6	1	3	248	0.00	30.209 
06:10	32.5	32.5	32.5	89	29.6	1	5	248	0.00	30.209 
06:15	32.5	32.5	32.5	89	29.6	2	4	248	0.00	30.213 
06:20	32.5	32.5	32.5	89	29.6	2	5	248	0.00	30.213 
06:25	32.7	32.7	32.7	89	29.8	2	5	248	0.00	30.213 
06:30	32.7	32.7	32.7	89	29.8	3	9	248	0.00	30.208 
06:35	32.7	32.7	32.7	88	29.5	2	5	248	0.00	30.208 
06:40	32.5	32.5	32.5	88	29.3	2	6	248	0.00	30.208 
06:45	32.5	32.5	32.5	89	29.6	2	6	248	0.00	30.207 
06:50	32.5	32.5	32.5	88	29.3	2	5	248	0.00	30.207 
06:55	32.4	32.4	32.4	88	29.3	1	4	225	0.00	30.207 
07:00	32.4	32.4	32.4	89	29.5	2	4	248	0.00	30.203 
07:05	32.4	32.4	32.4	89	29.5	2	6	248	0.00	30.203 
07:10	32.4	32.4	32.4	88	29.3	2	5	248	0.00	30.203 
07:15	32.4	32.4	32.4	88	29.3	3	6	248	0.00	30.203 
07:20	32.5	32.5	32.5	88	29.3	2	5	248	0.00	30.203 
07:25	32.5	32.5	32.5	88	29.3	2	6	248	0.00	30.203 
07:30	32.7	32.7	32.7	88	29.5	3	8	248	0.00	30.210 
07:35	32.7	32.7	32.7	88	29.5	2	7	248	0.00	30.210 
07:40	32.7	32.7	32.7	88	29.5	2	5	248	0.00	30.210 
07:45	32.7	32.7	32.7	88	29.5	2	8	248	0.00	30.213 
07:50	32.7	32.7	32.7	88	29.5	2	6	248	0.00	30.213 
07:55	32.7	32.7	32.7	87	29.3	2	4	248	0.00	30.213 
08:00	32.5	32.5	32.5	87	29.1	2	4	248	0.00	30.214 
08:05	32.5	32.5	32.5	88	29.3	2	5	248	0.00	30.214 
08:10	32.7	32.7	32.7	87	29.3	3	6	248	0.00	30.214 
08:15	32.7	32.7	32.7	87	29.3	2	5	248	0.00	30.216 
08:20	32.7	32.7	32.7	87	29.3	3	9	248	0.00	30.216 
08:25	32.8	32.8	32.8	87	29.4	2	4	248	0.00	30.216 
08:30	32.7	32.7	32.7	87	29.3	1	4	248	0.00	30.216 
08:35	32.8	32.8	32.8	87	29.4	2	5	248	0.00	30.216 
08:40	33.1	33.1	33.1	87	29.7	3	6	248	0.00	30.216 
08:45	33.2	33.2	33.2	86	29.5	2	10	248	0.00	30.223 
08:50	33.4	33.4	33.4	86	29.7	2	6	248	0.00	30.223 
08:55	33.7	33.7	33.7	86	30.0	2	9	248	0.00	30.223 
09:00	33.8	33.8	33.8	85	29.8	2	4	248	0.00	30.223 
09:05	34.0	34.0	34.0	85	30.0	2	5	248	0.00	30.223 
09:10	34.1	34.1	34.1	85	30.1	1	5	248	0.00	30.223 
09:15	34.4	34.4	34.4	84	30.1	3	7	270	0.00	30.221 
09:20	34.7	34.7	34.7	84	30.4	2	5	248	0.00	30.221 
09:25	35.0	35.0	35.0	83	30.4	2	5	248	0.00	30.221 
09:30	35.2	35.2	35.2	83	30.6	3	7	248	0.00	30.224 
09:35	35.5	35.5	35.5	82	30.6	3	9	270	0.00	30.224 
09:40	35.8	35.8	35.8	81	30.6	3	8	248	0.00	30.224 
09:45	36.0	36.0	36.0	81	30.7	3	6	248	0.00	30.227 
09:50	36.2	36.2	36.2	81	30.9	3	9	248	0.00	30.227 
09:55	36.5	36.5	36.5	80	30.9	3	9	248	0.00	30.227 
10:00	36.6	36.6	36.6	80	31.0	3	11	248	0.00	30.218 
10:05	36.9	36.9	36.9	79	31.0	3	9	248	0.00	30.218 
10:10	37.0	37.0	37.0	79	31.1	3	9	270	0.00	30.218 
10:15	37.3	37.3	37.3	78	31.1	3	9	248	0.00	30.224 
10:20	37.5	34.4	37.5	77	31.0	4	8	270	0.00	30.224 
10:25	37.8	37.8	37.8	77	31.2	3	9	248	0.00	30.224 
10:30	37.9	34.9	37.9	77	31.3	4	10	248	0.00	30.222 
10:35	38.0	35.0	38.0	77	31.4	4	10	248	0.00	30.222 
10:40	38.3	35.4	38.3	76	31.4	4	12	248	0.00	30.222 
10:45	38.8	38.8	38.8	76	31.9	2	6	248	0.00	30.221 
10:50	38.9	38.9	38.9	75	31.7	3	9	248	0.00	30.221 
10:55	38.9	35.2	38.9	74	31.3	5	12	248	0.00	30.221 
11:00	39.2	36.4	39.2	73	31.3	4	12	270	0.00	30.211 
11:05	39.5	36.7	39.5	73	31.6	4	10	270	0.00	30.211 
11:10	39.6	36.9	39.6	74	32.0	4	9	248	0.00	30.211 
11:15	39.9	39.9	39.9	73	32.0	3	9	248	0.00	30.204 
11:20	40.2	37.5	40.2	72	31.9	4	11	248	0.00	30.204 
11:25	40.3	37.7	40.3	71	31.7	4	11	270	0.00	30.204 
11:30	40.6	38.0	40.6	70	31.6	4	10	248	0.00	30.193 
11:35	40.8	38.2	40.8	70	31.8	4	12	248	0.00	30.193 
11:40	40.9	37.5	40.9	70	31.9	5	12	248	0.00	30.193 
11:45	41.1	37.8	41.1	70	32.1	5	12	270	0.00	30.191 
11:50	41.1	37.1	41.1	69	31.7	6	11	248	0.00	30.191 
11:55	41.3	38.8	41.3	69	31.9	4	12	248	0.00	30.191 
12:00	41.5	39.1	41.5	69	32.1	4	9	248	0.00	30.176 
12:05	41.8	39.4	41.8	67	31.7	4	13	270	0.00	30.176 
12:10	41.9	39.5	41.9	68	32.1	4	10	248	0.00	30.176 
12:15	42.1	39.7	42.1	68	32.3	4	9	248	0.00	30.174 
12:20	42.2	39.1	42.2	67	32.0	5	16	248	0.00	30.174 
12:25	42.2	39.1	42.2	65	31.3	5	16	270	0.00	30.174 
12:30	42.3	40.0	42.3	66	31.8	4	7	248	0.00	30.159 
12:35	42.6	40.3	42.6	65	31.7	4	12	248	0.00	30.159 
12:40	42.8	40.6	42.8	65	31.9	4	14	248	0.00	30.159 
12:45	43.2	43.2	43.2	65	32.2	3	9	248	0.00	30.146 
12:50	43.3	41.1	43.3	64	32.0	4	10	248	0.00	30.146 
12:55	43.3	40.3	43.3	62	31.2	5	11	248	0.00	30.146 
13:00	43.8	41.7	43.8	62	31.6	4	10	270	0.00	30.140 
13:05	43.9	41.8	43.9	62	31.7	4	10	248	0.00	30.140 
13:10	44.1	42.1	44.1	63	32.3	4	7	248	0.00	30.140 
13:15	44.1	44.1	44.1	63	32.3	3	9	270	0.00	30.132 
13:20	44.3	44.3	44.3	63	32.5	2	4	225	0.00	30.132 
13:25	44.6	42.6	44.6	61	32.0	4	11	270	0.00	30.132 
13:30	44.8	44.8	44.8	60	31.8	3	10	248	0.00	30.131 
13:35	44.9	42.2	44.9	59	31.5	5	10	248	0.00	30.131 
13:40	45.1	43.2	45.1	59	31.6	4	11	248	0.00	30.131 
13:45	45.4	45.4	45.4	62	33.2	3	6	248	0.00	30.126 
13:50	45.7	43.9	45.7	58	31.8	4	10	270	0.00	30.126 
13:55	45.8	45.8	45.8	58	31.9	3	10	248	0.00	30.126 
14:00	46.0	46.0	46.0	59	32.5	2	7	248	0.00	30.114 
14:05	46.1	46.1	46.1	64	34.6	2	6	248	0.00	30.114 
14:10	46.0	46.0	46.0	64	34.5	2	11	270	0.00	30.114 
14:15	46.1	46.1	46.1	63	34.2	2	8	270	0.00	30.113 
14:20	46.1	46.1	46.1	62	33.8	2	6	248	0.00	30.113 
14:25	46.1	44.4	46.1	60	33.0	4	10	248	0.00	30.113 
14:30	46.2	46.2	46.2	62	33.9	3	7	248	0.00	30.110 
14:35	46.2	46.2	46.2	59	32.7	3	10	248	0.00	30.110 
14:40	46.5	46.5	46.5	60	33.4	3	7	270	0.00	30.110 
14:45	46.7	45.1	46.7	58	32.7	4	9	248	0.00	30.108 
14:50	46.8	46.8	46.8	58	32.8	3	6	225	0.00	30.108 
14:55	46.7	46.7	46.7	59	33.1	2	7	270	0.00	30.108 
15:00	46.8	46.8	46.8	59	33.2	2	4	270	0.00	30.104 
15:05	47.0	47.0	47.0	58	33.0	2	6	270	0.00	30.104 
15:10	47.0	47.0	47.0	58	33.0	2	6	248	0.00	30.104 
15:15	47.3	47.3	47.3	58	33.3	2	6	248	0.00	30.104 
15:20	47.4	47.4	47.4	58	33.4	3	6	248	0.00	30.104 
15:25	47.4	47.4	47.4	58	33.4	3	6	248	0.00	30.104 
15:30	47.4	47.4	47.4	60	34.2	2	8	248	0.00	30.106 
15:35	47.4	45.2	47.4	59	33.8	5	13	248	0.00	30.106 
15:40	47.4	45.9	47.4	61	34.6	4	10	248	0.00	30.106 
15:45	47.4	47.4	47.4	61	34.6	3	7	248	0.00	30.105 
15:50	47.6	47.6	47.6	62	35.2	3	7	248	0.00	30.105 
15:55	47.4	47.4	47.4	63	35.4	3	8	225	0.00	30.105 
16:00	47.3	47.3	47.3	64	35.7	2	7	225	0.00	30.101 
16:05	47.1	47.1	47.1	64	35.6	2	7	248	0.00	30.101 
16:10	46.8	46.8	46.8	65	35.7	2	5	248	0.00	30.101 
16:15	46.7	46.7	46.7	65	35.6	3	9	248	0.00	30.103 
16:20	46.7	46.7	46.7	66	36.0	2	7	248	0.00	30.103 
16:25	46.5	46.5	46.5	67	36.1	1	6	248	0.00	30.103 
16:30	46.2	46.2	46.2	68	36.2	1	4	68	0.00	30.101 
16:35	46.1	46.1	46.1	68	36.1	1	4	248	0.00	30.101 
16:40	46.0	46.0	46.0	67	35.7	2	4	248	0.00	30.101 
16:45	45.8	45.8	45.8	67	35.5	2	7	248	0.00	30.106 
16:50	45.5	45.5	45.5	67	35.2	1	6	248	0.00	30.106 
16:55	45.2	45.2	45.2	68	35.3	1	3	248	0.00	30.106 
17:00	45.1	45.1	45.1	68	35.2	1	4	248	0.00	30.098 
17:05	44.8	44.8	44.8	69	35.3	0	3	248	0.00	30.098 
17:10	44.5	44.5	44.5	69	35.0	1	3	248	0.00	30.098 
17:15	44.3	44.3	44.3	69	34.8	1	4	248	0.00	30.094 
17:20	44.3	44.3	44.3	69	34.8	1	5	270	0.00	30.094 
17:25	44.2	44.2	44.2	69	34.7	1	3	270	0.00	30.094 
17:30	43.9	43.9	43.9	69	34.4	0	3	338	0.00	30.097 
17:35	43.5	43.5	43.5	70	34.4	0	1	338	0.00	30.097 
17:40	42.9	42.9	42.9	71	34.2	0	1	338	0.00	30.097 
17:45	42.5	42.5	42.5	73	34.5	0	2	338	0.00	30.096 
17:50	42.3	42.3	42.3	74	34.6	0	1	338	0.00	30.096 
17:55	42.1	42.1	42.1	75	34.8	0	2	338	0.00	30.096 
18:00	41.8	41.8	41.8	77	35.1	0	2	0	0.00	30.099 
18:05	41.6	41.6	41.6	77	34.9	0	1	0	0.00	30.099 
18:10	41.3	41.3	41.3	78	35.0	0	1	0	0.00	30.099 
18:15	41.1	41.1	41.1	78	34.8	0	1	0	0.00	30.102 
18:20	40.9	40.9	40.9	79	34.9	0	1	0	0.00	30.102 
18:25	40.8	40.8	40.8	80	35.1	0	2	0	0.00	30.102 
18:30	40.8	40.8	40.8	80	35.1	0	2	315	0.00	30.102 
18:35	40.8	40.8	40.8	80	35.1	0	2	315	0.00	30.102 
18:40	40.8	40.8	40.8	80	35.1	0	3	248	0.00	30.102 
18:45	40.8	40.8	40.8	80	35.1	0	2	248	0.00	30.101 
18:50	40.8	40.8	40.8	80	35.1	0	3	248	0.00	30.101 
18:55	40.6	40.6	40.6	80	34.9	0	1	248	0.00	30.101 
19:00	40.5	40.5	40.5	80	34.8	0	2	248	0.00	30.100 
19:05	40.5	40.5	40.5	80	34.8	0	2	248	0.00	30.100 
19:10	40.5	40.5	40.5	80	34.8	0	2	248	0.00	30.100 
19:15	40.6	40.6	40.6	81	35.2	0	2	270	0.00	30.093 
19:20	40.6	40.6	40.6	81	35.2	0	3	270	0.00	30.093 
19:25	40.6	40.6	40.6	81	35.2	0	2	270	0.00	30.093 
19:30	40.6	40.6	40.6	81	35.2	1	4	270	0.00	30.090 
19:35	40.8	40.8	40.8	81	35.4	1	2	225	0.00	30.090 
19:40	40.8	40.8	40.8	81	35.4	0	2	225	0.00	30.090 
19:45	40.8	40.8	40.8	81	35.4	0	2	338	0.00	30.091 
19:50	40.6	40.6	40.6	81	35.2	0	2	338	0.00	30.091 
19:55	40.5	40.5	40.5	81	35.1	0	3	45	0.00	30.091 
20:00	40.3	40.3	40.3	82	35.2	0	2	45	0.00	30.097 
20:05	40.3	40.3	40.3	82	35.2	0	3	292	0.00	30.097 
20:10	40.2	40.2	40.2	82	35.2	0	1	292	0.00	30.097 
20:15	40.1	40.1	40.1	82	35.1	0	1	292	0.00	30.091 
20:20	40.1	40.1	40.1	82	35.1	0	1	292	0.00	30.091 
20:25	39.9	39.9	39.9	83	35.2	0	2	270	0.00	30.091 
20:30	39.8	39.8	39.8	83	35.1	0	1	270	0.00	30.087 
20:35	39.5	39.5	39.5	83	34.8	0	1	270	0.00	30.087 
20:40	39.3	39.3	39.3	84	34.9	0	1	270	0.00	30.087 
20:45	39.3	39.3	39.3	84	34.9	0	1	270	0.00	30.076 
20:50	39.2	39.2	39.2	84	34.8	0	1	270	0.00	30.076 
20:55	39.1	39.1	39.1	84	34.7	0	1	270	0.00	30.076 
21:00	38.8	38.8	38.8	84	34.4	0	1	270	0.00	30.069 
21:05	38.6	38.6	38.6	84	34.2	0	1	270	0.00	30.069 
21:10	38.5	38.5	38.5	85	34.4	0	1	270	0.00	30.069 
21:15	38.5	38.5	38.5	84	34.1	0	0	---	0.00	30.065 
21:20	38.3	38.3	38.3	85	34.2	0	1	270	0.00	30.065 
21:25	38.2	38.2	38.2	85	34.1	0	1	270	0.00	30.065 
21:30	38.0	38.0	38.0	85	33.9	0	1	270	0.00	30.067 
21:35	38.0	38.0	38.0	85	33.9	0	1	270	0.00	30.067 
21:40	37.9	37.9	37.9	85	33.8	0	0	---	0.00	30.067 
21:45	37.9	37.9	37.9	86	34.1	0	2	270	0.00	30.067 
21:50	37.8	37.8	37.8	86	34.0	0	0	---	0.00	30.067 
21:55	37.8	37.8	37.8	86	34.0	0	0	---	0.00	30.067 
22:00	37.6	37.6	37.6	86	33.8	0	0	---	0.00	30.065 
22:05	37.6	37.6	37.6	87	34.1	0	1	270	0.00	30.065 
22:10	37.6	37.6	37.6	87	34.1	0	1	270	0.00	30.065 
22:15	37.8	37.8	37.8	87	34.3	0	2	270	0.00	30.058 
22:20	38.2	38.2	38.2	87	34.7	0	2	270	0.00	30.058 
22:25	38.3	38.3	38.3	86	34.5	0	2	270	0.00	30.058 
22:30	38.5	38.5	38.5	86	34.7	0	3	292	0.00	30.047 
22:35	38.6	38.6	38.6	85	34.5	0	2	292	0.00	30.047 
22:40	38.6	38.6	38.6	85	34.5	0	2	315	0.00	30.047 
22:45	38.6	38.6	38.6	85	34.5	0	2	315	0.00	30.045 
22:50	38.6	38.6	38.6	85	34.5	0	2	315	0.00	30.045 
22:55	38.8	38.8	38.8	85	34.7	0	2	270	0.00	30.045 
23:00	38.9	38.9	38.9	85	34.8	0	2	292	0.00	30.043 
23:05	39.3	39.3	39.3	84	34.9	1	4	248	0.00	30.043 
23:10	39.5	39.5	39.5	84	35.1	1	3	248	0.00	30.043 
23:15	39.8	39.8	39.8	83	35.1	1	5	225	0.00	30.035 
23:20	39.9	39.9	39.9	83	35.2	1	3	270	0.00	30.035 
23:25	40.1	40.1	40.1	82	35.1	1	4	248	0.00	30.035 
23:30	40.1	40.1	40.1	82	35.1	1	4	248	0.00	30.032 
23:35	40.1	40.1	40.1	82	35.1	1	5	248	0.00	30.032 
23:40	40.2	40.2	40.2	82	35.2	1	6	225	0.00	30.032 
23:45	40.3	40.3	40.3	81	34.9	1	4	248	0.00	30.032 
23:50	40.3	40.3	40.3	81	34.9	1	4	248	0.00	30.032 
23:55	40.5	40.5	40.5	81	35.1	1	4	248	0.00	30.032 

CoCoRaHS
IN-AL-39
A2 Web Hosting
Creative Commons License
GoDaddy
Look for:

loaded 2017-10-17 09:32:56 • last modified 2010-11-18 10:43:29
Privacy PolicyDisclaimer
• wx.awcolley.com is powered by PmWiki v.2002016 •
• all content (unless otherwise noted) © 2017 A W Colley